Sunday, April 22, 2018, 6:03 PM EDT
Back to Local

KCDW, Caldwell Essex County Airport

Location: Fairfield, NJ, United States Lat: 40.883
Local Time: 6:03 PM EDT (22:03 GMT) Lon: -74.283
Time Zone: US/Eastern Elev: 173 ft

Show me the last for .
Show Decoded

2018-04-22 16:53 METAR KCDW 222053Z 29010G16KT 250V310 10SM CLR 19/M11 A3031 RMK AO2 SLP269
                 T01891111 56017 =
2018-04-22 15:53 METAR KCDW 221953Z AUTO VRB03KT 10SM CLR 18/M11 A3032 RMK AO2 SLP272 T01831111 =
2018-04-22 14:53 METAR KCDW 221853Z 32010KT 10SM CLR 18/M10 A3034 RMK AO2 SLP280 T01831100 =
2018-04-22 13:53 METAR KCDW 221753Z VRB05G15KT 10SM CLR 17/M09 A3036 RMK AO2 SLP286 T01721089
                 10172 20061 56019 =
2018-04-22 12:53 METAR KCDW 221653Z 01006G15KT 10SM CLR 16/M11 A3038 RMK AO2 SLP292 T01611106 =
2018-04-22 11:53 METAR KCDW 221553Z 32010KT 10SM CLR 16/M11 A3040 RMK AO2 SLP298 T01561106 =
2018-04-22 10:53 METAR KCDW 221453Z VRB05KT 10SM CLR 14/M09 A3042 RMK AO2 SLP305 T01391089 58003
                 =
2018-04-22 09:53 METAR KCDW 221353Z VRB05KT 10SM CLR 13/M06 A3042 RMK AO2 SLP306 T01281061 =
2018-04-22 08:53 METAR KCDW 221253Z 30003KT 10SM CLR 10/M04 A3043 RMK AO2 SLP308 T01001044 =
2018-04-22 07:53 METAR KCDW 221153Z 00000KT 10SM CLR 06/M04 A3042 RMK AO2 SLP308 T00611044 10078
                 20011 51013 =
2018-04-22 06:53 METAR KCDW 221053Z 00000KT 10SM CLR 02/M04 A3042 RMK AO2 SLP307 T00221044 =
2018-04-22 05:53 METAR KCDW 220953Z 00000KT 10SM CLR 02/M04 A3039 RMK AO2 SLP298 T00221044 =
2018-04-22 04:53 METAR KCDW 220853Z 00000KT 10SM CLR 03/M05 A3039 RMK AO2 SLP296 T00281050 50002
                 =
2018-04-22 03:53 METAR KCDW 220753Z 00000KT 10SM CLR 04/M05 A3040 RMK AO2 SLP300 T00391050 =
2018-04-22 02:53 METAR KCDW 220653Z 00000KT 10SM CLR 05/M05 A3039 RMK AO2 SLP296 T00501050 =
2018-04-22 01:53 METAR KCDW 220553Z 00000KT 10SM CLR 08/M07 A3038 RMK AO2 SLP293 T00781072 10139
                 20072 51010 =
2018-04-22 00:53 METAR KCDW 220453Z 00000KT 10SM CLR 09/M07 A3037 RMK AO2 SLP291 T00941067
                 401671006 =
2018-04-21 23:53 METAR KCDW 220353Z 00000KT 10SM CLR 10/M06 A3036 RMK AO2 SLP287 T01001061 =
2018-04-21 22:53 METAR KCDW 220253Z 34003KT 10SM CLR 11/M07 A3035 RMK AO2 SLP283 T01061067 51017
                 =
2018-04-21 21:53 METAR KCDW 220153Z 32003KT 10SM CLR 12/M07 A3034 RMK AO2 SLP281 T01171072 =
2018-04-21 20:53 METAR KCDW 220053Z 34005KT 10SM CLR 13/M08 A3032 RMK AO2 SLP274 T01281083 =
2018-04-21 19:53 METAR KCDW 212353Z 31006KT 10SM CLR 14/M09 A3030 RMK AO2 SLP268 T01391089 10167
                 20139 53012 =
2018-04-21 18:53 METAR KCDW 212253Z 33007KT 10SM CLR 15/M08 A3028 RMK AO2 SLP260 T01501078 =

Support USWX by starting your Amazon purchase here.